Mykolayiv, Ukraine
Current Conditions -  °F | °C
As of 8:00 PM on Saturday 25 Oct 2014 (Local Time) from UKON Reporting Station
Clear Clear  
Wind Chill: 23°   Ceiling: Unl
Heat Index: 34°   Visibility: 6mi
Dew Point: 25°   Wind: 18mph
Humidity: 70%   Direction: 50°NE
Pressure: 30.42"   Gusts: NA
Location:  46.97°N, 32°E
Report Text: UKON 251700Z 05008MPS 020V080 CAVOK 01/M04 Q1030 NOSIG
Loading
Personal Weather Stations






























Interactive Weather Map
Tropical Storm Tracking
New forecast layout! Learn more

10-Day Weather Forecast

Advertisements
Track Severe Weather on mobile